createdAt,value
2023-02-06T00:01:50.130Z,562.80
2023-02-06T00:04:18.276Z,524.60
2023-02-06T00:06:46.590Z,538.00
2023-02-06T00:09:14.886Z,576.60
2023-02-06T00:11:42.928Z,624.70
2023-02-06T00:14:10.981Z,557.20
2023-02-06T00:16:39.073Z,557.10
2023-02-06T00:19:07.387Z,571.30
2023-02-06T00:21:35.252Z,590.60
2023-02-06T00:24:04.791Z,565.70
2023-02-06T00:26:33.082Z,551.90
2023-02-06T00:29:01.183Z,518.90
2023-02-06T00:31:29.202Z,510.00
2023-02-06T00:33:57.355Z,508.80
2023-02-06T00:36:26.992Z,522.60
2023-02-06T00:38:55.076Z,537.10
2023-02-06T00:41:23.152Z,560.40
2023-02-06T00:43:52.393Z,556.40
2023-02-06T00:46:20.984Z,666.40
2023-02-06T00:48:49.071Z,579.80
2023-02-06T00:51:17.011Z,664.80
2023-02-06T00:53:44.990Z,566.30
2023-02-06T00:56:14.789Z,509.10
2023-02-06T00:58:42.731Z,487.50
2023-02-06T01:01:13.186Z,485.70
2023-02-06T01:03:41.274Z,457.10
2023-02-06T01:06:10.780Z,434.10
2023-02-06T01:08:39.067Z,403.20
2023-02-06T01:11:15.077Z,424.50
2023-02-06T01:13:43.574Z,579.10
2023-02-06T01:16:16.224Z,533.60
2023-02-06T01:18:44.459Z,482.20
2023-02-06T01:21:16.531Z,490.80
2023-02-06T01:23:44.892Z,488.70
2023-02-06T01:26:14.584Z,484.50
2023-02-06T01:28:45.855Z,453.30
2023-02-06T01:31:24.932Z,438.30
2023-02-06T01:33:54.697Z,448.60
2023-02-06T01:36:23.620Z,428.00
2023-02-06T01:38:52.578Z,441.10
2023-02-06T01:41:23.446Z,441.90
2023-02-06T01:44:13.526Z,452.60
2023-02-06T01:46:44.355Z,484.10
2023-02-06T01:49:28.172Z,471.40
2023-02-06T01:52:20.789Z,472.70
2023-02-06T01:54:58.161Z,455.60
2023-02-06T01:57:27.213Z,454.10
2023-02-06T02:00:00.700Z,434.20
2023-02-06T02:02:29.559Z,427.60
2023-02-06T02:04:58.706Z,435.20
2023-02-06T02:07:32.193Z,457.00
2023-02-06T02:12:30.513Z,381.30
2023-02-06T02:14:59.399Z,376.40
2023-02-06T02:17:42.676Z,429.70
2023-02-06T02:20:38.659Z,410.80
2023-02-06T02:23:20.597Z,375.80
2023-02-06T02:26:35.457Z,384.60
2023-02-06T02:29:51.405Z,392.20
2023-02-06T02:32:44.019Z,393.60
2023-02-06T02:35:20.909Z,358.80
2023-02-06T02:38:20.462Z,343.20
2023-02-06T02:41:02.561Z,333.80
2023-02-06T02:43:42.498Z,321.60
2023-02-06T02:46:26.444Z,323.00
2023-02-06T02:49:00.261Z,313.30
2023-02-06T02:51:28.440Z,322.40
2023-02-06T02:53:58.162Z,352.00
2023-02-06T02:56:27.395Z,331.80
2023-02-06T02:59:07.988Z,346.90
2023-02-06T03:01:42.511Z,381.40
2023-02-06T03:04:18.585Z,362.70
2023-02-06T03:07:04.634Z,346.00
2023-02-06T03:10:03.963Z,340.30
2023-02-06T03:12:45.987Z,328.30
2023-02-06T03:15:35.518Z,317.50
2023-02-06T03:18:32.792Z,315.90
2023-02-06T03:21:05.601Z,282.90
2023-02-06T03:23:38.596Z,350.90
2023-02-06T03:26:10.008Z,303.00
2023-02-06T03:28:42.113Z,288.80
2023-02-06T03:31:13.871Z,296.20
2023-02-06T03:33:53.099Z,271.80
2023-02-06T03:36:21.523Z,266.30
2023-02-06T03:38:51.084Z,249.90
2023-02-06T03:41:23.845Z,252.30
2023-02-06T03:43:53.649Z,252.90
2023-02-06T03:46:23.624Z,242.00
2023-02-06T03:48:57.278Z,240.20
2023-02-06T03:51:39.524Z,219.80
2023-02-06T03:54:09.418Z,234.40
2023-02-06T03:56:45.921Z,234.50
2023-02-06T03:59:14.288Z,246.30
2023-02-06T04:01:46.830Z,290.80
2023-02-06T04:04:20.244Z,304.50
2023-02-06T04:06:48.327Z,230.30
2023-02-06T04:09:16.251Z,199.50
2023-02-06T04:11:44.217Z,202.50
2023-02-06T04:14:12.140Z,182.70
2023-02-06T04:16:40.073Z,188.40
2023-02-06T04:19:08.108Z,185.70
2023-02-06T04:21:36.013Z,177.40
2023-02-06T04:24:04.178Z,170.40
2023-02-06T04:26:31.952Z,175.30
2023-02-06T04:28:59.913Z,166.20
2023-02-06T04:31:27.948Z,170.20
2023-02-06T04:33:55.889Z,165.40
2023-02-06T04:36:23.913Z,164.40
2023-02-06T04:38:51.897Z,157.60
2023-02-06T04:41:19.765Z,159.90
2023-02-06T04:43:47.547Z,151.10
2023-02-06T04:46:15.425Z,143.40
2023-02-06T04:48:43.481Z,135.40
2023-02-06T04:51:11.345Z,133.50
2023-02-06T04:53:39.238Z,144.50
2023-02-06T04:56:11.214Z,137.30
2023-02-06T04:58:40.636Z,148.80
2023-02-06T05:01:08.471Z,158.50
2023-02-06T05:03:36.547Z,147.70
2023-02-06T05:06:04.919Z,150.80
2023-02-06T05:08:32.968Z,136.70
2023-02-06T05:11:00.810Z,141.40
2023-02-06T05:13:28.693Z,149.80
2023-02-06T05:16:01.400Z,168.20
2023-02-06T05:18:29.359Z,161.30
2023-02-06T05:20:57.469Z,170.20
2023-02-06T05:23:25.349Z,166.20
2023-02-06T05:25:53.236Z,170.20
2023-02-06T05:28:21.351Z,157.40
2023-02-06T05:30:49.485Z,157.10
2023-02-06T05:33:19.096Z,145.00
2023-02-06T05:35:47.075Z,147.30
2023-02-06T05:38:15.183Z,149.10
2023-02-06T05:40:43.068Z,152.10
2023-02-06T05:43:11.847Z,146.30
2023-02-06T05:45:39.898Z,174.20
2023-02-06T05:48:08.122Z,250.60
2023-02-06T05:50:35.946Z,553.50
2023-02-06T05:53:05.242Z,182.00
2023-02-06T05:55:33.497Z,147.60
2023-02-06T05:58:01.659Z,135.70
2023-02-06T06:00:29.484Z,131.60
2023-02-06T06:02:57.428Z,145.70
2023-02-06T06:05:25.978Z,150.70
2023-02-06T06:07:53.858Z,159.70
2023-02-06T06:10:21.760Z,185.00
2023-02-06T06:12:49.650Z,168.90
2023-02-06T06:15:17.702Z,167.00
2023-02-06T06:17:45.596Z,168.80
2023-02-06T06:20:13.530Z,159.70
2023-02-06T06:22:41.560Z,161.60
2023-02-06T06:25:09.651Z,163.30
2023-02-06T06:27:37.549Z,151.70
2023-02-06T06:30:06.088Z,165.60
2023-02-06T06:32:34.140Z,147.80
2023-02-06T06:35:02.216Z,160.00
2023-02-06T06:37:30.490Z,158.70
2023-02-06T06:39:58.452Z,153.50
2023-02-06T06:42:26.425Z,156.80
2023-02-06T06:44:54.442Z,147.20
2023-02-06T06:47:22.365Z,146.50
2023-02-06T06:49:50.246Z,147.20
2023-02-06T06:52:25.010Z,136.60
2023-02-06T06:54:54.185Z,141.10
2023-02-06T06:57:22.541Z,141.80
2023-02-06T06:59:50.891Z,137.70
2023-02-06T07:02:18.756Z,143.20
2023-02-06T07:04:46.852Z,145.40
2023-02-06T07:07:14.890Z,135.60
2023-02-06T07:09:42.858Z,130.10
2023-02-06T07:12:10.856Z,119.10
2023-02-06T07:14:40.205Z,125.80
2023-02-06T07:17:08.265Z,119.90
2023-02-06T07:19:36.086Z,129.50
2023-02-06T07:22:04.066Z,150.30
2023-02-06T07:24:31.854Z,137.90
2023-02-06T07:26:59.826Z,139.70
2023-02-06T07:29:27.720Z,132.90
2023-02-06T07:31:55.791Z,136.50
2023-02-06T07:34:23.864Z,165.00
2023-02-06T07:36:51.806Z,252.10
2023-02-06T07:39:19.761Z,154.90
2023-02-06T07:41:49.992Z,160.80
2023-02-06T07:44:20.449Z,155.80
2023-02-06T07:46:48.217Z,148.10
2023-02-06T07:49:16.148Z,148.40
2023-02-06T07:51:45.516Z,150.20
2023-02-06T07:54:13.725Z,243.10
2023-02-06T07:56:42.343Z,191.90
2023-02-06T07:59:10.556Z,249.00
2023-02-06T08:01:38.442Z,192.00
2023-02-06T08:04:06.415Z,251.50
2023-02-06T08:06:34.524Z,374.70
2023-02-06T08:09:02.418Z,372.00
2023-02-06T08:11:31.163Z,398.70
2023-02-06T08:13:59.204Z,305.10
2023-02-06T08:16:27.198Z,175.80
2023-02-06T08:18:55.009Z,138.80
2023-02-06T08:21:25.541Z,130.50
2023-02-06T08:23:55.371Z,117.10
2023-02-06T08:26:24.163Z,130.10
2023-02-06T08:28:53.860Z,167.00
2023-02-06T08:31:27.005Z,107.60
2023-02-06T08:33:55.659Z,90.30
2023-02-06T08:36:25.227Z,81.20
2023-02-06T08:38:53.476Z,85.40
2023-02-06T08:41:24.786Z,90.80
2023-02-06T08:43:55.762Z,103.70
2023-02-06T08:46:26.939Z,116.60
2023-02-06T08:48:56.728Z,108.40
2023-02-06T08:51:28.004Z,101.10
2023-02-06T08:54:00.968Z,95.50
2023-02-06T08:56:30.562Z,144.30
2023-02-06T08:58:59.895Z,107.80
2023-02-06T09:01:29.751Z,115.30
2023-02-06T09:04:03.507Z,91.00
2023-02-06T09:06:31.512Z,88.80
2023-02-06T09:08:59.526Z,96.30
2023-02-06T09:11:28.806Z,113.40
2023-02-06T09:13:58.651Z,98.30
2023-02-06T09:16:28.334Z,88.10
2023-02-06T09:19:01.453Z,111.90
2023-02-06T09:21:31.964Z,85.40
2023-02-06T09:24:03.380Z,83.60
2023-02-06T09:26:38.886Z,76.60
2023-02-06T09:29:11.658Z,72.80
2023-02-06T09:31:42.013Z,73.90
2023-02-06T09:34:12.563Z,133.40
2023-02-06T09:36:41.207Z,101.10
2023-02-06T09:39:09.598Z,97.10
2023-02-06T09:41:50.515Z,114.40
2023-02-06T09:44:21.539Z,84.10
2023-02-06T09:46:55.757Z,74.70
2023-02-06T09:49:41.795Z,70.00
2023-02-06T09:52:37.076Z,70.60
2023-02-06T09:55:18.521Z,68.80
2023-02-06T09:58:08.066Z,63.20
2023-02-06T10:00:51.740Z,71.70
2023-02-06T10:03:50.318Z,61.00
2023-02-06T10:06:27.193Z,103.40
2023-02-06T10:09:03.688Z,73.80
2023-02-06T10:11:55.001Z,59.20
2023-02-06T10:14:43.895Z,52.90
2023-02-06T10:17:26.010Z,49.10
2023-02-06T10:20:15.662Z,454.90
2023-02-06T10:22:54.601Z,117.90
2023-02-06T10:25:29.076Z,65.90
2023-02-06T10:28:01.462Z,58.80
2023-02-06T10:30:50.923Z,64.30
2023-02-06T10:33:32.722Z,174.00
2023-02-06T10:36:19.436Z,44.80
2023-02-06T10:38:50.281Z,48.30
2023-02-06T10:41:26.006Z,82.80
2023-02-06T10:44:03.005Z,79.50
2023-02-06T10:46:40.407Z,46.60
2023-02-06T10:49:18.686Z,58.00
2023-02-06T10:51:52.847Z,111.60
2023-02-06T10:54:31.428Z,106.00
2023-02-06T10:57:00.729Z,86.20
2023-02-06T10:59:28.750Z,55.20
2023-02-06T11:02:18.291Z,44.10
2023-02-06T11:05:25.837Z,46.90
2023-02-06T11:07:57.084Z,40.30
2023-02-06T11:10:26.921Z,69.50
2023-02-06T11:13:06.368Z,39.20
2023-02-06T11:15:43.060Z,49.10
2023-02-06T11:18:17.565Z,40.20
2023-02-06T11:20:48.490Z,71.80
2023-02-06T11:23:22.989Z,57.80
2023-02-06T11:26:10.569Z,38.50
2023-02-06T11:28:49.375Z,53.80
2023-02-06T11:31:20.571Z,76.80
2023-02-06T11:33:52.557Z,53.50
2023-02-06T11:36:27.354Z,357.40
2023-02-06T11:38:57.551Z,190.80
2023-02-06T11:41:26.265Z,289.10
2023-02-06T11:44:02.766Z,112.70
2023-02-06T11:46:35.214Z,135.40
2023-02-06T11:49:25.564Z,156.40
2023-02-06T11:52:03.794Z,75.90
2023-02-06T11:54:35.540Z,90.40
2023-02-06T11:57:10.238Z,165.60
2023-02-06T11:59:53.876Z,71.00
2023-02-06T12:02:36.592Z,48.60
2023-02-06T12:05:16.398Z,84.00
2023-02-06T12:07:53.513Z,42.70
2023-02-06T12:10:24.085Z,34.40
2023-02-06T12:12:57.967Z,73.90
2023-02-06T12:15:46.966Z,269.90
2023-02-06T12:18:22.736Z,150.80
2023-02-06T12:20:59.384Z,78.60
2023-02-06T12:23:42.886Z,50.60
2023-02-06T12:26:16.121Z,51.30
2023-02-06T12:28:47.030Z,29.70
2023-02-06T12:31:22.884Z,29.20
2023-02-06T12:33:55.311Z,24.10
2023-02-06T12:36:30.773Z,93.10
2023-02-06T12:39:03.373Z,115.00
2023-02-06T12:41:46.440Z,308.30
2023-02-06T12:44:29.651Z,116.40
2023-02-06T12:47:06.914Z,72.80
2023-02-06T12:49:50.821Z,441.80
2023-02-06T12:52:31.467Z,129.90
2023-02-06T12:55:11.565Z,53.00
2023-02-06T12:57:40.192Z,27.30
2023-02-06T13:00:14.325Z,242.20
2023-02-06T13:03:21.080Z,145.00
2023-02-06T13:06:03.057Z,95.30
2023-02-06T13:08:56.055Z,71.20
2023-02-06T13:11:40.654Z,39.90
2023-02-06T13:14:17.719Z,56.80
2023-02-06T13:16:45.688Z,179.50
2023-02-06T13:19:31.797Z,97.30
2023-02-06T13:22:09.137Z,32.60
2023-02-06T13:24:39.304Z,31.20
2023-02-06T13:27:07.199Z,25.90
2023-02-06T13:29:37.645Z,20.70
2023-02-06T13:32:22.758Z,20.60
2023-02-06T13:34:50.638Z,17.80
2023-02-06T13:37:33.269Z,23.60
2023-02-06T13:40:22.380Z,28.60
2023-02-06T13:43:14.000Z,19.40
2023-02-06T13:46:01.053Z,54.80
2023-02-06T13:48:59.882Z,27.40
2023-02-06T13:51:50.359Z,50.50
2023-02-06T13:54:34.221Z,21.70
2023-02-06T13:57:23.000Z,19.30
2023-02-06T14:00:01.709Z,15.10
2023-02-06T14:02:47.565Z,17.80
2023-02-06T14:05:26.201Z,19.40
2023-02-06T14:08:06.118Z,21.70
2023-02-06T14:11:32.609Z,17.60
2023-02-06T14:14:18.967Z,16.40
2023-02-06T14:16:59.692Z,16.80
2023-02-06T14:19:38.303Z,19.40
2023-02-06T14:22:27.679Z,17.00
2023-02-06T14:25:29.876Z,19.20
2023-02-06T14:28:16.501Z,19.60
2023-02-06T14:30:56.756Z,23.60
2023-02-06T14:33:40.744Z,22.50
2023-02-06T14:36:39.034Z,27.80
2023-02-06T14:39:29.822Z,24.10
2023-02-06T14:41:58.160Z,25.20
2023-02-06T14:44:31.401Z,21.10
2023-02-06T14:47:55.808Z,20.00
2023-02-06T14:51:00.922Z,22.20
2023-02-06T14:53:30.792Z,24.80
2023-02-06T14:56:15.787Z,23.00
2023-02-06T14:58:46.500Z,26.80
2023-02-06T15:01:34.572Z,30.60
2023-02-06T15:04:12.596Z,26.00
2023-02-06T15:07:04.067Z,24.30
2023-02-06T15:09:31.908Z,70.50
2023-02-06T15:12:02.572Z,54.60
2023-02-06T15:14:33.633Z,30.20
2023-02-06T15:17:02.836Z,27.90
2023-02-06T15:19:33.574Z,28.00
2023-02-06T15:22:15.549Z,25.60
2023-02-06T15:24:54.398Z,21.90
2023-02-06T15:27:37.171Z,24.20
2023-02-06T15:30:21.739Z,19.60
2023-02-06T15:32:56.208Z,20.80
2023-02-06T15:35:28.864Z,22.90
2023-02-06T15:38:03.078Z,25.60
2023-02-06T15:40:33.288Z,53.10
2023-02-06T15:43:03.016Z,66.50
2023-02-06T15:45:37.290Z,176.30
2023-02-06T15:48:23.780Z,170.60
2023-02-06T15:51:00.509Z,140.50
2023-02-06T15:53:42.356Z,72.80
2023-02-06T15:56:26.500Z,116.00
2023-02-06T15:58:58.266Z,68.80
2023-02-06T16:01:30.443Z,64.70
2023-02-06T16:04:03.962Z,59.70
2023-02-06T16:06:31.838Z,85.00
2023-02-06T16:09:03.219Z,79.30
2023-02-06T16:11:46.237Z,85.50
2023-02-06T16:14:29.080Z,86.00
2023-02-06T16:17:17.069Z,89.80
2023-02-06T16:19:56.422Z,70.20
2023-02-06T16:22:28.198Z,67.10
2023-02-06T16:25:15.462Z,77.90
2023-02-06T16:27:46.362Z,69.90
2023-02-06T16:30:20.435Z,63.50
2023-02-06T16:32:48.364Z,91.70
2023-02-06T16:35:16.256Z,94.90
2023-02-06T16:37:44.123Z,193.60
2023-02-06T16:40:11.919Z,184.50
2023-02-06T16:42:41.611Z,153.50
2023-02-06T16:45:16.672Z,272.20
2023-02-06T16:47:44.704Z,192.50
2023-02-06T16:50:13.030Z,258.00
2023-02-06T16:52:47.439Z,302.80
2023-02-06T16:55:20.406Z,177.00
2023-02-06T16:57:53.062Z,192.50
2023-02-06T17:00:26.777Z,281.50
2023-02-06T17:02:55.108Z,222.90
2023-02-06T17:05:25.543Z,234.00
2023-02-06T17:07:55.054Z,339.80
2023-02-06T17:10:26.096Z,305.80
2023-02-06T17:12:54.234Z,267.40
2023-02-06T17:15:22.278Z,248.40
2023-02-06T17:17:49.973Z,203.10
2023-02-06T17:20:26.707Z,179.50
2023-02-06T17:22:54.470Z,145.40
2023-02-06T17:25:22.227Z,234.70
2023-02-06T17:27:50.023Z,301.90
2023-02-06T17:30:20.618Z,209.60
2023-02-06T17:32:49.264Z,241.60
2023-02-06T17:35:18.025Z,217.90
2023-02-06T17:37:46.203Z,206.40
2023-02-06T17:40:22.667Z,215.30
2023-02-06T17:42:50.708Z,235.20
2023-02-06T17:45:18.539Z,275.90
2023-02-06T17:47:46.559Z,315.50
2023-02-06T17:50:17.205Z,277.20
2023-02-06T17:52:45.205Z,291.30
2023-02-06T17:55:13.617Z,332.30
2023-02-06T17:57:41.801Z,342.20
2023-02-06T18:00:14.511Z,311.80
2023-02-06T18:02:42.686Z,374.90
2023-02-06T18:05:10.920Z,396.30
2023-02-06T18:07:39.401Z,364.00
2023-02-06T18:10:09.230Z,327.70
2023-02-06T18:12:37.808Z,328.60
2023-02-06T18:15:05.938Z,265.90
2023-02-06T18:17:34.007Z,257.90
2023-02-06T18:20:02.078Z,259.30
2023-02-06T18:22:29.964Z,329.70
2023-02-06T18:24:59.462Z,330.60
2023-02-06T18:27:27.220Z,366.00
2023-02-06T18:29:55.427Z,338.50
2023-02-06T18:32:23.307Z,459.00
2023-02-06T18:34:51.285Z,379.60
2023-02-06T18:37:19.066Z,376.60
2023-02-06T18:39:47.031Z,554.10
2023-02-06T18:42:33.578Z,359.40
2023-02-06T18:45:03.995Z,313.70
2023-02-06T18:47:32.296Z,368.40
2023-02-06T18:50:00.340Z,306.30
2023-02-06T18:52:28.871Z,298.50
2023-02-06T18:54:56.732Z,309.70
2023-02-06T18:57:24.682Z,502.50
2023-02-06T18:59:52.742Z,464.20
2023-02-06T19:02:20.578Z,300.30
2023-02-06T19:04:48.502Z,342.90
2023-02-06T19:07:16.781Z,332.10
2023-02-06T19:09:44.615Z,336.60
2023-02-06T19:12:12.403Z,349.30
2023-02-06T19:14:40.236Z,375.20
2023-02-06T19:17:08.077Z,359.30
2023-02-06T19:19:35.909Z,295.70
2023-02-06T19:22:03.735Z,300.30
2023-02-06T19:24:31.754Z,381.80
2023-02-06T19:26:59.601Z,378.10
2023-02-06T19:29:35.628Z,388.20
2023-02-06T19:32:07.177Z,375.30
2023-02-06T19:34:37.386Z,358.80
2023-02-06T19:37:07.741Z,363.10
2023-02-06T19:39:38.094Z,374.30
2023-02-06T19:42:09.821Z,545.00
2023-02-06T19:44:38.049Z,556.60
2023-02-06T19:47:05.904Z,445.50
2023-02-06T19:49:33.762Z,563.90
2023-02-06T19:52:02.112Z,628.60
2023-02-06T19:54:30.201Z,470.10
2023-02-06T19:57:00.617Z,515.60
2023-02-06T19:59:29.927Z,498.40
2023-02-06T20:02:00.970Z,456.50
2023-02-06T20:04:32.491Z,444.60
2023-02-06T20:07:01.173Z,460.40
2023-02-06T20:09:29.868Z,430.10
2023-02-06T20:11:59.020Z,377.60
2023-02-06T20:14:27.026Z,391.60
2023-02-06T20:16:55.328Z,461.20
2023-02-06T20:19:26.267Z,475.90
2023-02-06T20:21:57.301Z,420.60
2023-02-06T20:24:28.967Z,364.60
2023-02-06T20:27:01.683Z,351.90
2023-02-06T20:29:33.215Z,304.90
2023-02-06T20:32:04.333Z,422.00
2023-02-06T20:34:32.734Z,306.60
2023-02-06T20:37:00.650Z,356.90
2023-02-06T20:39:29.672Z,388.80
2023-02-06T20:41:57.788Z,366.80
2023-02-06T20:44:26.445Z,369.00
2023-02-06T20:46:54.370Z,347.40
2023-02-06T20:49:24.864Z,347.80
2023-02-06T20:51:53.275Z,331.80
2023-02-06T20:54:21.874Z,359.30
2023-02-06T20:56:50.067Z,379.70
2023-02-06T20:59:19.790Z,400.70
2023-02-06T21:01:48.062Z,380.80
2023-02-06T21:04:16.918Z,376.60
2023-02-06T21:06:47.975Z,375.00
2023-02-06T21:09:16.950Z,353.30
2023-02-06T21:11:48.046Z,398.20
2023-02-06T21:14:16.895Z,379.80
2023-02-06T21:16:44.938Z,299.10
2023-02-06T21:19:15.017Z,354.30
2023-02-06T21:21:45.831Z,362.10
2023-02-06T21:24:14.833Z,317.50
2023-02-06T21:26:43.140Z,324.70
2023-02-06T21:29:13.956Z,332.10
2023-02-06T21:31:42.236Z,343.40
2023-02-06T21:34:21.906Z,328.10
2023-02-06T21:36:50.302Z,324.10
2023-02-06T21:39:21.121Z,326.60
2023-02-06T21:41:53.828Z,359.10
2023-02-06T21:44:24.127Z,370.00
2023-02-06T21:46:52.833Z,378.90
2023-02-06T21:49:21.192Z,429.40
2023-02-06T21:51:53.501Z,514.80
2023-02-06T21:54:22.507Z,387.00
2023-02-06T21:56:51.446Z,289.30
2023-02-06T21:59:19.207Z,260.30
2023-02-06T22:01:47.012Z,214.70
2023-02-06T22:04:14.848Z,308.90
2023-02-06T22:06:43.695Z,327.90
2023-02-06T22:09:16.357Z,315.10
2023-02-06T22:11:46.094Z,308.80
2023-02-06T22:14:17.056Z,345.30
2023-02-06T22:16:48.286Z,343.70
2023-02-06T22:19:16.712Z,343.70
2023-02-06T22:21:44.604Z,348.90
2023-02-06T22:24:12.654Z,328.70
2023-02-06T22:26:41.605Z,317.10
2023-02-06T22:29:17.428Z,313.50
2023-02-06T22:34:19.417Z,298.10
2023-02-06T22:36:50.644Z,283.90
2023-02-06T22:39:18.942Z,279.10
2023-02-06T22:41:47.242Z,269.40
2023-02-06T22:44:17.023Z,264.90
2023-02-06T22:46:48.785Z,255.00
2023-02-06T22:49:17.936Z,262.40
2023-02-06T22:51:46.225Z,252.30
2023-02-06T22:54:14.714Z,312.40
2023-02-06T22:56:43.575Z,239.60
2023-02-06T22:59:22.330Z,247.70
2023-02-06T23:01:54.094Z,247.90
2023-02-06T23:04:30.017Z,250.90
2023-02-06T23:06:58.116Z,246.40
2023-02-06T23:09:29.133Z,256.70
2023-02-06T23:12:01.164Z,306.20
2023-02-06T23:14:31.187Z,263.40
2023-02-06T23:17:00.754Z,263.60
2023-02-06T23:19:29.831Z,250.10
2023-02-06T23:21:57.723Z,270.40
2023-02-06T23:24:25.634Z,260.00
2023-02-06T23:26:54.453Z,271.80
2023-02-06T23:29:23.939Z,301.50
2023-02-06T23:31:51.964Z,339.20
2023-02-06T23:34:23.667Z,389.90
2023-02-06T23:36:52.073Z,428.00
2023-02-06T23:39:19.957Z,376.10
2023-02-06T23:41:47.815Z,308.50
2023-02-06T23:44:15.738Z,305.60
2023-02-06T23:46:43.628Z,359.50
2023-02-06T23:49:11.885Z,391.80
2023-02-06T23:51:39.761Z,409.10
2023-02-06T23:54:09.008Z,393.70
2023-02-06T23:56:37.353Z,377.90
2023-02-06T23:59:06.735Z,359.70
